Terminal Aerodrome Forecast
Issued by NWS

Home | Current Version | Previous Version | Graphics & Text | Print | Product List | Glossary On
Versions: 1 2 3 4 5 6 7 8 9 10 11 12 13 14 15 16 17 18 19 20
000
FTUS43 KICT 291137
TAFRSL
TAF
KRSL 291137Z 2912/3012 VRB04KT P6SM SCT030 BKN200
     FM291400 30008KT P6SM SCT035
     FM291900 34009KT P6SM SCT040
     FM300200 35012KT P6SM BKN030=

USA.gov is the U.S. government's official web portal to all federal, state and local government web resources and services.